Baltimore, Maryland
Traffic Map
Current Weather Conditions
Baltimore, Maryland
Overcast Light Rain
Overcast
39°
Feels Like: 39°
Wind Chill: 39° Ceiling: 1400
Heat Index: 39° Visibility: 4mi
Dew Point: 37° Wind: 3mph
Humidity: 93% Direction: 310° (NW)
Pressure: 29.97in Gusts: 0mph
Raw Report DataKBWI 050626Z 31003KT 4SM R10/2800VP6000FT -RA BR SCT009 BKN014 OVC036 04/03 A2997 RMK AO2 PRESRR P0000 $
Traffic Incident Summary
Active as of:
Severity:
Category:
InformationThere was an issue retrieving the traffic information for this location. Please try a different location or try again shortly.
Advertisements
Track Severe Weather on mobile